createdAt,value
2023-02-16T00:01:59.107Z,92.40
2023-02-16T00:04:27.006Z,92.50
2023-02-16T00:06:54.226Z,92.60
2023-02-16T00:09:21.678Z,92.70
2023-02-16T00:12:07.623Z,92.80
2023-02-16T00:14:35.660Z,92.80
2023-02-16T00:17:02.873Z,92.90
2023-02-16T00:19:37.169Z,92.60
2023-02-16T00:22:04.524Z,92.60
2023-02-16T00:24:31.779Z,92.50
2023-02-16T00:26:59.445Z,92.60
2023-02-16T00:29:26.081Z,92.70
2023-02-16T00:31:53.443Z,92.80
2023-02-16T00:34:28.208Z,92.90
2023-02-16T00:36:55.500Z,92.80
2023-02-16T00:39:22.527Z,92.80
2023-02-16T00:41:52.294Z,92.60
2023-02-16T00:44:39.200Z,92.60
2023-02-16T00:47:11.933Z,92.60
2023-02-16T00:49:38.611Z,92.50
2023-02-16T00:52:23.725Z,92.60
2023-02-16T00:54:50.424Z,92.70
2023-02-16T00:57:18.562Z,92.80
2023-02-16T00:59:46.207Z,93.00
2023-02-16T01:02:12.935Z,93.20
2023-02-16T01:04:39.915Z,93.20
2023-02-16T01:07:29.928Z,93.50
2023-02-16T01:10:14.951Z,93.70
2023-02-16T01:12:41.739Z,93.80
2023-02-16T01:15:15.881Z,93.80
2023-02-16T01:17:42.534Z,93.80
2023-02-16T01:20:17.596Z,93.70
2023-02-16T01:22:46.151Z,93.50
2023-02-16T01:25:13.150Z,93.30
2023-02-16T01:27:40.282Z,93.20
2023-02-16T01:30:08.224Z,93.10
2023-02-16T01:32:34.936Z,93.00
2023-02-16T01:35:01.630Z,93.00
2023-02-16T01:37:28.479Z,92.70
2023-02-16T01:39:55.138Z,92.60
2023-02-16T01:42:44.919Z,92.50
2023-02-16T01:45:15.801Z,92.60
2023-02-16T01:47:47.759Z,92.70
2023-02-16T01:50:14.500Z,92.80
2023-02-16T01:52:51.642Z,93.00
2023-02-16T01:55:27.364Z,93.00
2023-02-16T01:58:02.798Z,93.00
2023-02-16T02:00:49.619Z,93.20
2023-02-16T02:03:46.013Z,93.30
2023-02-16T02:06:14.283Z,93.20
2023-02-16T02:08:59.324Z,93.10
2023-02-16T02:11:35.274Z,92.90
2023-02-16T02:14:05.733Z,92.90
2023-02-16T02:16:32.575Z,92.80
2023-02-16T02:18:59.285Z,92.80
2023-02-16T02:22:03.559Z,92.90
2023-02-16T02:24:53.094Z,93.00
2023-02-16T02:27:24.256Z,93.20
2023-02-16T02:30:09.924Z,93.40
2023-02-16T02:32:45.819Z,93.60
2023-02-16T02:35:31.462Z,93.70
2023-02-16T02:38:04.115Z,93.70
2023-02-16T02:40:33.866Z,93.70
2023-02-16T02:43:12.539Z,93.30
2023-02-16T02:45:47.724Z,93.30
2023-02-16T02:48:14.438Z,93.40
2023-02-16T02:51:14.587Z,93.30
2023-02-16T02:53:43.374Z,93.20
2023-02-16T02:56:29.235Z,93.20
2023-02-16T02:59:18.932Z,93.10
2023-02-16T03:01:48.918Z,93.10
2023-02-16T03:04:19.708Z,93.30
2023-02-16T03:06:47.830Z,93.40
2023-02-16T03:09:15.449Z,93.40
2023-02-16T03:12:01.624Z,93.40
2023-02-16T03:14:40.293Z,93.30
2023-02-16T03:17:29.973Z,93.30
2023-02-16T03:20:16.523Z,93.10
2023-02-16T03:23:01.639Z,93.20
2023-02-16T03:25:49.010Z,93.00
2023-02-16T03:28:36.553Z,92.90
2023-02-16T03:31:04.747Z,92.70
2023-02-16T03:33:32.092Z,92.90
2023-02-16T03:35:59.502Z,93.00
2023-02-16T03:38:26.349Z,92.90
2023-02-16T03:40:53.385Z,92.80
2023-02-16T03:43:24.364Z,92.80
2023-02-16T03:45:51.198Z,93.00
2023-02-16T03:48:17.938Z,93.10
2023-02-16T03:50:44.624Z,93.20
2023-02-16T03:53:11.353Z,93.30
2023-02-16T03:55:39.582Z,93.30
2023-02-16T03:58:06.932Z,93.30
2023-02-16T04:00:34.218Z,93.20
2023-02-16T04:03:00.940Z,93.00
2023-02-16T04:05:27.969Z,92.90
2023-02-16T04:07:54.748Z,92.80
2023-02-16T04:10:21.759Z,92.80
2023-02-16T04:12:48.438Z,92.80
2023-02-16T04:15:16.902Z,92.80
2023-02-16T04:17:43.626Z,92.90
2023-02-16T04:20:11.935Z,93.10
2023-02-16T04:22:38.905Z,93.20
2023-02-16T04:25:06.112Z,93.10
2023-02-16T04:27:32.912Z,92.90
2023-02-16T04:29:59.679Z,92.90
2023-02-16T04:32:26.957Z,93.00
2023-02-16T04:34:53.674Z,93.10
2023-02-16T04:37:20.980Z,93.10
2023-02-16T04:39:47.652Z,93.20
2023-02-16T04:42:14.377Z,93.30
2023-02-16T04:44:41.064Z,93.20
2023-02-16T04:47:07.719Z,93.30
2023-02-16T04:49:34.390Z,93.40
2023-02-16T04:52:01.341Z,93.40
2023-02-16T04:54:28.049Z,93.30
2023-02-16T04:56:54.784Z,93.10
2023-02-16T04:59:21.606Z,93.20
2023-02-16T05:01:49.160Z,93.30
2023-02-16T05:04:16.554Z,93.40
2023-02-16T05:06:43.258Z,93.60
2023-02-16T05:09:09.990Z,93.80
2023-02-16T05:11:55.272Z,93.90
2023-02-16T05:14:42.049Z,94.00
2023-02-16T05:17:10.272Z,94.10
2023-02-16T05:19:36.965Z,94.20
2023-02-16T05:22:04.104Z,94.30
2023-02-16T05:24:31.189Z,94.30
2023-02-16T05:26:57.915Z,94.30
2023-02-16T05:29:24.667Z,94.30
2023-02-16T05:31:51.523Z,94.20
2023-02-16T05:34:18.504Z,94.10
2023-02-16T05:36:45.365Z,94.20
2023-02-16T05:39:12.019Z,94.20
2023-02-16T05:41:38.716Z,94.20
2023-02-16T05:44:05.584Z,94.20
2023-02-16T05:46:34.077Z,94.20
2023-02-16T05:49:01.185Z,94.10
2023-02-16T05:51:28.004Z,94.10
2023-02-16T05:53:54.816Z,94.10
2023-02-16T05:56:21.943Z,94.10
2023-02-16T05:58:49.139Z,94.00
2023-02-16T06:01:16.042Z,94.00
2023-02-16T06:03:43.175Z,94.10
2023-02-16T06:06:10.096Z,94.20
2023-02-16T06:08:37.012Z,94.30
2023-02-16T06:11:07.059Z,94.50
2023-02-16T06:13:34.357Z,94.60
2023-02-16T06:16:01.342Z,94.60
2023-02-16T06:18:28.077Z,94.50
2023-02-16T06:20:56.694Z,94.50
2023-02-16T06:23:23.495Z,94.50
2023-02-16T06:25:51.758Z,94.50
2023-02-16T06:28:18.490Z,94.30
2023-02-16T06:30:45.298Z,94.30
2023-02-16T06:33:11.964Z,94.50
2023-02-16T06:35:38.703Z,94.60
2023-02-16T06:38:05.389Z,94.60
2023-02-16T06:40:32.084Z,94.80
2023-02-16T06:42:58.797Z,95.10
2023-02-16T06:45:25.523Z,95.20
2023-02-16T06:47:52.162Z,95.20
2023-02-16T06:50:19.167Z,95.30
2023-02-16T06:52:45.863Z,95.50
2023-02-16T06:55:12.947Z,95.60
2023-02-16T06:57:39.608Z,95.60
2023-02-16T07:00:07.670Z,95.50
2023-02-16T07:02:35.702Z,95.20
2023-02-16T07:05:03.320Z,95.40
2023-02-16T07:07:30.954Z,95.60
2023-02-16T07:09:58.030Z,95.80
2023-02-16T07:12:24.752Z,95.80
2023-02-16T07:14:51.413Z,95.60
2023-02-16T07:17:18.189Z,95.70
2023-02-16T07:19:44.832Z,95.80
2023-02-16T07:22:11.897Z,95.90
2023-02-16T07:24:38.558Z,95.80
2023-02-16T07:27:05.659Z,95.70
2023-02-16T07:29:32.360Z,95.60
2023-02-16T07:31:59.253Z,95.60
2023-02-16T07:34:26.086Z,95.60
2023-02-16T07:36:52.843Z,95.60
2023-02-16T07:39:19.706Z,95.70
2023-02-16T07:41:46.448Z,95.90
2023-02-16T07:44:13.148Z,95.90
2023-02-16T07:46:39.886Z,95.80
2023-02-16T07:49:06.560Z,95.70
2023-02-16T07:51:33.306Z,95.80
2023-02-16T07:54:00.121Z,95.70
2023-02-16T07:56:28.180Z,95.70
2023-02-16T07:58:58.954Z,95.60
2023-02-16T08:01:25.966Z,95.40
2023-02-16T08:03:52.743Z,95.10
2023-02-16T08:06:20.169Z,95.00
2023-02-16T08:08:46.921Z,94.80
2023-02-16T08:11:18.093Z,94.60
2023-02-16T08:13:44.899Z,94.40
2023-02-16T08:16:12.825Z,94.20
2023-02-16T08:18:40.709Z,94.00
2023-02-16T08:21:13.889Z,93.90
2023-02-16T08:23:41.913Z,93.80
2023-02-16T08:26:09.947Z,93.70
2023-02-16T08:28:38.462Z,93.60
2023-02-16T08:31:06.023Z,93.50
2023-02-16T08:33:34.306Z,93.40
2023-02-16T08:36:01.064Z,93.30
2023-02-16T08:38:27.746Z,93.20
2023-02-16T08:40:55.529Z,93.20
2023-02-16T08:43:22.240Z,93.30
2023-02-16T08:45:49.168Z,93.30
2023-02-16T08:48:16.897Z,93.30
2023-02-16T08:50:47.198Z,93.20
2023-02-16T08:53:15.404Z,93.00
2023-02-16T08:55:42.124Z,92.90
2023-02-16T08:58:08.851Z,92.80
2023-02-16T09:00:35.581Z,92.50
2023-02-16T09:03:02.302Z,92.30
2023-02-16T09:05:28.979Z,92.00
2023-02-16T09:07:56.070Z,91.80
2023-02-16T09:10:23.637Z,91.60
2023-02-16T09:12:50.308Z,91.40
2023-02-16T09:15:17.070Z,91.20
2023-02-16T09:17:43.756Z,91.00
2023-02-16T09:20:10.691Z,90.90
2023-02-16T09:22:38.005Z,90.70
2023-02-16T09:25:05.244Z,90.60
2023-02-16T09:27:32.749Z,90.50
2023-02-16T09:29:59.510Z,90.40
2023-02-16T09:32:30.122Z,90.40
2023-02-16T09:34:56.764Z,90.40
2023-02-16T09:37:23.922Z,90.40
2023-02-16T09:39:50.609Z,90.30
2023-02-16T09:42:24.399Z,90.30
2023-02-16T09:45:01.426Z,90.20
2023-02-16T09:47:33.766Z,90.10
2023-02-16T09:50:03.898Z,90.10
2023-02-16T09:52:37.606Z,90.10
2023-02-16T09:55:08.632Z,90.10
2023-02-16T09:57:58.598Z,90.10
2023-02-16T10:00:34.507Z,90.10
2023-02-16T10:03:08.076Z,90.10
2023-02-16T10:05:47.075Z,90.00
2023-02-16T10:08:22.855Z,90.00
2023-02-16T10:11:28.263Z,89.90
2023-02-16T10:13:57.510Z,89.70
2023-02-16T10:16:28.464Z,89.60
2023-02-16T10:18:59.608Z,89.50
2023-02-16T10:21:28.232Z,89.40
2023-02-16T10:23:58.232Z,89.40
2023-02-16T10:26:46.349Z,89.40
2023-02-16T10:29:15.818Z,89.40
2023-02-16T10:31:43.559Z,89.30
2023-02-16T10:34:23.185Z,88.90
2023-02-16T10:36:56.047Z,88.80
2023-02-16T10:39:26.288Z,88.70
2023-02-16T10:42:01.787Z,88.50
2023-02-16T10:44:36.203Z,88.50
2023-02-16T10:47:04.838Z,88.40
2023-02-16T10:49:32.767Z,88.50
2023-02-16T10:52:01.263Z,88.40
2023-02-16T10:54:29.264Z,88.40
2023-02-16T10:56:57.536Z,88.30
2023-02-16T10:59:26.390Z,88.30
2023-02-16T11:01:54.455Z,87.90
2023-02-16T11:04:33.661Z,87.90
2023-02-16T11:07:05.479Z,87.90
2023-02-16T11:09:33.115Z,87.70
2023-02-16T11:11:59.988Z,87.90
2023-02-16T11:14:30.455Z,87.80
2023-02-16T11:17:14.726Z,87.50
2023-02-16T11:19:47.652Z,87.40
2023-02-16T11:22:31.953Z,87.30
2023-02-16T11:25:17.601Z,87.40
2023-02-16T11:27:55.058Z,87.40
2023-02-16T11:30:29.401Z,87.40
2023-02-16T11:32:56.690Z,87.20
2023-02-16T11:35:23.460Z,87.00
2023-02-16T11:37:50.400Z,86.60
2023-02-16T11:40:23.067Z,86.70
2023-02-16T11:42:52.382Z,86.80
2023-02-16T11:45:24.158Z,86.30
2023-02-16T11:47:56.312Z,86.30
2023-02-16T11:50:28.972Z,86.70
2023-02-16T11:52:57.444Z,86.70
2023-02-16T11:55:32.737Z,86.40
2023-02-16T11:58:18.414Z,86.10
2023-02-16T12:01:06.168Z,86.00
2023-02-16T12:03:33.461Z,85.70
2023-02-16T12:06:01.123Z,85.80
2023-02-16T12:08:46.623Z,85.10
2023-02-16T12:11:13.361Z,85.20
2023-02-16T12:13:58.280Z,84.90
2023-02-16T12:16:24.988Z,84.60
2023-02-16T12:19:11.476Z,84.70
2023-02-16T12:21:45.438Z,84.60
2023-02-16T12:24:32.036Z,84.90
2023-02-16T12:27:01.426Z,84.40
2023-02-16T12:29:44.874Z,84.60
2023-02-16T12:32:24.442Z,84.80
2023-02-16T12:35:20.380Z,85.10
2023-02-16T12:37:52.899Z,85.50
2023-02-16T12:40:33.287Z,85.70
2023-02-16T12:42:59.982Z,85.90
2023-02-16T12:45:30.440Z,85.80
2023-02-16T12:48:15.631Z,85.70
2023-02-16T12:50:44.163Z,85.30
2023-02-16T12:53:27.718Z,85.10
2023-02-16T12:56:07.692Z,85.20
2023-02-16T12:58:43.382Z,84.60
2023-02-16T13:01:16.026Z,84.40
2023-02-16T13:03:50.558Z,84.40
2023-02-16T13:06:27.730Z,84.50
2023-02-16T13:09:10.212Z,84.60
2023-02-16T13:11:55.785Z,84.40
2023-02-16T13:14:28.450Z,84.10
2023-02-16T13:17:08.985Z,83.90
2023-02-16T13:19:35.940Z,84.00
2023-02-16T13:22:05.597Z,84.30
2023-02-16T13:24:39.404Z,84.40
2023-02-16T13:27:18.241Z,84.20
2023-02-16T13:29:52.729Z,84.20
2023-02-16T13:32:22.839Z,84.00
2023-02-16T13:34:58.884Z,84.00
2023-02-16T13:37:31.914Z,83.90
2023-02-16T13:40:04.880Z,83.90
2023-02-16T13:42:47.043Z,84.10
2023-02-16T13:45:21.293Z,84.30
2023-02-16T13:47:48.745Z,84.60
2023-02-16T13:50:22.399Z,84.80
2023-02-16T13:52:52.939Z,85.10
2023-02-16T13:55:25.910Z,85.30
2023-02-16T13:58:02.289Z,85.40
2023-02-16T14:00:32.343Z,85.40
2023-02-16T14:03:00.946Z,85.20
2023-02-16T14:05:35.549Z,85.10
2023-02-16T14:08:13.643Z,84.90
2023-02-16T14:10:55.463Z,84.80
2023-02-16T14:13:24.559Z,84.60
2023-02-16T14:15:52.530Z,84.80
2023-02-16T14:18:28.454Z,84.80
2023-02-16T14:21:03.006Z,85.10
2023-02-16T14:23:34.820Z,85.30
2023-02-16T14:26:03.302Z,85.40
2023-02-16T14:28:30.132Z,85.10
2023-02-16T14:31:02.167Z,84.60
2023-02-16T14:33:31.004Z,84.30
2023-02-16T14:35:59.736Z,84.60
2023-02-16T14:38:47.340Z,84.70
2023-02-16T14:41:23.422Z,84.90
2023-02-16T14:44:10.393Z,85.20
2023-02-16T14:46:46.206Z,85.30
2023-02-16T14:49:13.247Z,85.50
2023-02-16T14:51:58.702Z,85.50
2023-02-16T14:54:37.278Z,85.50
2023-02-16T14:57:12.098Z,85.40
2023-02-16T14:59:46.238Z,85.40
2023-02-16T15:02:25.078Z,85.40
2023-02-16T15:04:52.849Z,85.40
2023-02-16T15:07:20.783Z,85.20
2023-02-16T15:09:49.770Z,85.30
2023-02-16T15:12:22.488Z,85.30
2023-02-16T15:14:54.325Z,85.30
2023-02-16T15:17:34.417Z,85.20
2023-02-16T15:20:08.411Z,85.20
2023-02-16T15:22:38.816Z,85.50
2023-02-16T15:25:16.923Z,85.80
2023-02-16T15:27:52.460Z,86.20
2023-02-16T15:30:21.528Z,86.70
2023-02-16T15:32:52.608Z,86.90
2023-02-16T15:35:24.588Z,87.10
2023-02-16T15:37:59.282Z,87.30
2023-02-16T15:40:27.157Z,87.60
2023-02-16T15:42:54.460Z,87.70
2023-02-16T15:45:26.841Z,87.90
2023-02-16T15:47:53.703Z,87.80
2023-02-16T15:50:27.190Z,87.70
2023-02-16T15:52:54.169Z,87.90
2023-02-16T15:55:20.864Z,87.90
2023-02-16T15:57:47.611Z,88.00
2023-02-16T16:00:21.493Z,88.00
2023-02-16T16:02:49.232Z,88.00
2023-02-16T16:05:22.094Z,88.20
2023-02-16T16:07:49.478Z,88.30
2023-02-16T16:10:19.974Z,88.40
2023-02-16T16:12:47.995Z,88.40
2023-02-16T16:15:17.523Z,88.40
2023-02-16T16:17:44.276Z,88.40
2023-02-16T16:20:31.304Z,88.50
2023-02-16T16:23:05.498Z,88.60
2023-02-16T16:25:35.333Z,88.90
2023-02-16T16:28:02.902Z,89.00
2023-02-16T16:30:31.721Z,89.00
2023-02-16T16:33:06.452Z,89.10
2023-02-16T16:35:34.325Z,88.90
2023-02-16T16:38:01.054Z,88.90
2023-02-16T16:40:30.682Z,88.90
2023-02-16T16:43:03.224Z,89.00
2023-02-16T16:45:34.851Z,89.10
2023-02-16T16:48:07.537Z,89.30
2023-02-16T16:50:37.722Z,89.40
2023-02-16T16:53:24.752Z,89.40
2023-02-16T16:55:51.419Z,89.30
2023-02-16T16:58:18.112Z,89.30
2023-02-16T17:00:44.776Z,89.20
2023-02-16T17:03:16.124Z,88.90
2023-02-16T17:05:43.968Z,88.70
2023-02-16T17:08:11.128Z,88.50
2023-02-16T17:10:39.193Z,88.50
2023-02-16T17:13:06.619Z,88.50
2023-02-16T17:15:44.221Z,88.50
2023-02-16T17:18:15.033Z,88.50
2023-02-16T17:20:42.068Z,88.50
2023-02-16T17:23:11.140Z,88.60
2023-02-16T17:25:37.811Z,88.70
2023-02-16T17:28:04.909Z,88.70
2023-02-16T17:30:32.462Z,88.80
2023-02-16T17:32:59.275Z,88.80
2023-02-16T17:35:26.587Z,88.80
2023-02-16T17:37:53.340Z,88.90
2023-02-16T17:40:21.930Z,88.90
2023-02-16T17:42:48.792Z,89.00
2023-02-16T17:45:17.346Z,89.20
2023-02-16T17:47:47.362Z,89.30
2023-02-16T17:50:15.235Z,89.20
2023-02-16T17:52:42.724Z,89.40
2023-02-16T17:55:09.851Z,89.60
2023-02-16T17:57:37.153Z,89.60
2023-02-16T18:00:05.559Z,89.70
2023-02-16T18:02:32.265Z,89.80
2023-02-16T18:04:59.120Z,89.80
2023-02-16T18:07:25.930Z,89.80
2023-02-16T18:09:52.728Z,89.80
2023-02-16T18:12:19.439Z,89.80
2023-02-16T18:14:46.181Z,90.00
2023-02-16T18:17:13.114Z,90.00
2023-02-16T18:19:39.836Z,90.00
2023-02-16T18:22:06.551Z,90.00
2023-02-16T18:24:33.450Z,90.00
2023-02-16T18:27:00.191Z,90.10
2023-02-16T18:29:27.018Z,90.10
2023-02-16T18:31:53.746Z,90.10
2023-02-16T18:34:20.445Z,90.10
2023-02-16T18:36:47.261Z,90.10
2023-02-16T18:39:14.030Z,90.10
2023-02-16T18:41:40.708Z,90.20
2023-02-16T18:44:07.466Z,90.20
2023-02-16T18:46:34.217Z,90.10
2023-02-16T18:49:00.926Z,90.10
2023-02-16T18:51:29.453Z,90.00
2023-02-16T18:53:56.751Z,90.00
2023-02-16T18:56:23.573Z,90.00
2023-02-16T18:58:50.230Z,90.00
2023-02-16T19:01:24.746Z,90.00
2023-02-16T19:03:51.455Z,90.00
2023-02-16T19:06:18.069Z,90.00
2023-02-16T19:08:45.546Z,89.90
2023-02-16T19:11:12.308Z,90.00
2023-02-16T19:13:38.998Z,90.00
2023-02-16T19:16:06.150Z,90.10
2023-02-16T19:18:33.164Z,90.20
2023-02-16T19:21:03.224Z,90.20
2023-02-16T19:23:30.086Z,90.30
2023-02-16T19:25:56.725Z,90.50
2023-02-16T19:28:23.409Z,90.60
2023-02-16T19:30:50.292Z,90.60
2023-02-16T19:33:17.097Z,90.70
2023-02-16T19:35:43.808Z,90.80
2023-02-16T19:38:10.707Z,90.90
2023-02-16T19:40:38.668Z,90.90
2023-02-16T19:43:05.366Z,90.90
2023-02-16T19:45:32.219Z,90.90
2023-02-16T19:47:58.881Z,90.90
2023-02-16T19:50:25.583Z,91.00
2023-02-16T19:52:52.252Z,91.10
2023-02-16T19:55:18.925Z,91.20
2023-02-16T19:57:45.590Z,91.30
2023-02-16T20:00:14.138Z,91.40
2023-02-16T20:02:40.871Z,91.50
2023-02-16T20:05:09.691Z,91.70
2023-02-16T20:07:36.603Z,91.80
2023-02-16T20:10:03.548Z,91.90
2023-02-16T20:12:30.283Z,92.00
2023-02-16T20:14:58.205Z,92.00
2023-02-16T20:17:25.847Z,92.10
2023-02-16T20:19:52.517Z,92.20
2023-02-16T20:22:19.265Z,92.20
2023-02-16T20:24:46.071Z,92.30
2023-02-16T20:27:12.769Z,92.40
2023-02-16T20:29:39.408Z,92.60
2023-02-16T20:32:06.240Z,92.60
2023-02-16T20:34:33.508Z,92.60
2023-02-16T20:37:00.512Z,92.70
2023-02-16T20:39:27.724Z,92.60
2023-02-16T20:41:54.491Z,92.70
2023-02-16T20:44:22.589Z,92.60
2023-02-16T20:46:49.561Z,92.60
2023-02-16T20:49:16.529Z,92.60
2023-02-16T20:51:43.441Z,92.60
2023-02-16T20:54:11.432Z,92.70
2023-02-16T20:56:38.163Z,92.70
2023-02-16T20:59:05.362Z,92.70
2023-02-16T21:01:39.528Z,92.80
2023-02-16T21:04:07.052Z,92.80
2023-02-16T21:06:34.230Z,92.80
2023-02-16T21:09:01.167Z,92.80
2023-02-16T21:11:27.938Z,92.90
2023-02-16T21:13:54.728Z,93.00
2023-02-16T21:16:21.802Z,93.10
2023-02-16T21:18:48.735Z,93.00
2023-02-16T21:21:15.861Z,93.00
2023-02-16T21:23:43.875Z,93.20
2023-02-16T21:26:11.078Z,93.20
2023-02-16T21:28:37.745Z,93.10
2023-02-16T21:31:05.602Z,93.10
2023-02-16T21:33:32.487Z,93.20
2023-02-16T21:36:15.897Z,93.20
2023-02-16T21:38:43.168Z,93.20
2023-02-16T21:41:26.613Z,93.10
2023-02-16T21:43:55.005Z,93.10
2023-02-16T21:46:21.759Z,93.00
2023-02-16T21:48:49.769Z,93.10
2023-02-16T21:51:20.710Z,93.20
2023-02-16T21:53:47.862Z,93.20
2023-02-16T21:56:33.199Z,93.30
2023-02-16T21:59:00.380Z,93.50
2023-02-16T22:01:29.615Z,93.50
2023-02-16T22:03:58.664Z,93.60
2023-02-16T22:06:27.307Z,93.70
2023-02-16T22:08:54.051Z,93.80
2023-02-16T22:11:21.391Z,93.90
2023-02-16T22:13:52.191Z,94.00
2023-02-16T22:16:20.339Z,94.00
2023-02-16T22:18:47.751Z,94.10
2023-02-16T22:21:14.452Z,94.20
2023-02-16T22:23:41.258Z,94.40
2023-02-16T22:26:08.437Z,94.50
2023-02-16T22:28:36.676Z,94.80
2023-02-16T22:31:07.791Z,95.00
2023-02-16T22:33:34.746Z,95.10
2023-02-16T22:36:05.934Z,95.20
2023-02-16T22:38:33.000Z,95.50
2023-02-16T22:41:03.493Z,95.80
2023-02-16T22:43:30.165Z,95.90
2023-02-16T22:45:56.899Z,96.20
2023-02-16T22:48:23.799Z,96.20
2023-02-16T22:50:57.280Z,96.40
2023-02-16T22:53:25.558Z,96.40
2023-02-16T22:55:53.979Z,96.70
2023-02-16T22:58:21.212Z,96.80
2023-02-16T23:00:48.443Z,96.80
2023-02-16T23:03:15.297Z,96.70
2023-02-16T23:05:42.300Z,96.70
2023-02-16T23:08:09.654Z,96.70
2023-02-16T23:10:37.851Z,96.90
2023-02-16T23:13:07.235Z,96.90
2023-02-16T23:15:37.347Z,96.90
2023-02-16T23:18:04.123Z,96.90
2023-02-16T23:20:31.066Z,97.00
2023-02-16T23:22:57.721Z,97.20
2023-02-16T23:25:33.336Z,97.40
2023-02-16T23:28:00.855Z,97.60
2023-02-16T23:30:28.197Z,97.90
2023-02-16T23:32:55.106Z,98.30
2023-02-16T23:35:22.122Z,98.50
2023-02-16T23:37:48.820Z,98.20
2023-02-16T23:40:15.527Z,97.90
2023-02-16T23:42:42.175Z,97.80
2023-02-16T23:45:09.158Z,97.70
2023-02-16T23:47:35.845Z,97.70
2023-02-16T23:50:02.508Z,97.60
2023-02-16T23:52:29.185Z,97.80
2023-02-16T23:54:55.836Z,97.90
2023-02-16T23:57:22.519Z,97.90
2023-02-16T23:59:49.195Z,98.00
